Weather History for Eagle River, WI

Change the Weather History Date:

Saturday, May 31, 2014

  Actual Average Record
Temperature  
Mean Temperature 70 °F -  
Max Temperature 84 °F 65 °F 84 °F (2014)
Min Temperature 56 °F 44 °F 32 °F (2012)
Cooling Degree Days 5    
Growing Degree Days 20 (Base 50)    
Moisture  
Dew Point 48 °F    
Average Humidity 45    
Maximum Humidity 77    
Minimum Humidity 25    
Precipitation  
Precipitation 0.00 in - - ()
Sea Level Pressure  
Sea Level Pressure 30.11 in    
Wind  
Wind Speed 5 mph (SSW)    
Max Wind Speed 13 mph    
Max Gust Speed 26 mph    
Visibility 10 miles    
Events      
Averages and records for this station are not official NWS values.
T = Trace of Precipitation, MM = Missing Value Source: NWS Daily Summary

Daily Weather History Graph

Daily Weather History Graph

Search for Another Location

Airport:

Trip Planner

Search our weather history database for the weather conditions in past years. The results will help you decide how hot, cold, wet, or windy it might be!

Date:

Astronomy

May. 31, 2014 Rise Set
Actual Time 5:10 AM CDT 8:39 PM CDT
Civil Twilight 4:33 AM CDT 9:16 PM CDT
Nautical Twilight 3:44 AM CDT 10:05 PM CDT
Astronomical Twilight 2:40 AM CDT 11:10 PM CDT
Moon 7:52 AM CDT (5/31) 10:52 PM CDT (5/31)
Length of Visible Light 16h 43m
Length of Day
15h 28m
Waxing Crescent, 8% of the Moon is Illuminated
May 31
Waxing Crescent
Jun 5
First Quarter
Jun 12
Full
Jun 19
Last Quarter
Jun 27
New

Hourly Weather History & Observations

Time (CDT) Temp. Dew Point Humidity Pressure Visibility Wind Dir Wind Speed Gust Speed Precip Events Conditions
12:10 AM 62.8 °F 50.4 °F 64% 30.18 in 10.0 mi SSE 3.5 mph - N/A   Clear
12:30 AM 62.6 °F 50.9 °F 66% 30.18 in 10.0 mi SSE 4.6 mph - N/A   Clear
12:50 AM 61.9 °F 50.5 °F 66% 30.18 in 10.0 mi South 4.6 mph - N/A   Clear
1:10 AM 61.9 °F 50.9 °F 67% 30.18 in 10.0 mi South 4.6 mph - N/A   Clear
1:30 AM 62.1 °F 50.5 °F 66% 30.18 in 10.0 mi SSW 3.5 mph - N/A   Clear
1:50 AM 61.7 °F 50.2 °F 66% 30.18 in 10.0 mi South 3.5 mph - N/A   Clear
2:10 AM 61.5 °F 50.0 °F 66% 30.18 in 10.0 mi South 3.5 mph - N/A   Clear
2:30 AM 61.9 °F 49.6 °F 64% 30.18 in 10.0 mi Calm Calm - N/A   Clear
2:50 AM 61.9 °F 49.6 °F 64% 30.18 in 10.0 mi Calm Calm - N/A   Clear
3:10 AM 60.6 °F 49.6 °F 67% 30.18 in 10.0 mi Calm Calm - N/A   Clear
3:30 AM 59.9 °F 49.6 °F 69% 30.19 in 10.0 mi Calm Calm - N/A   Clear
3:50 AM 58.1 °F 49.3 °F 72% 30.18 in 10.0 mi Calm Calm - N/A   Clear
4:10 AM 57.2 °F 48.9 °F 74% 30.18 in 10.0 mi Calm Calm - N/A   Clear
4:30 AM 57.2 °F 49.1 °F 74% 30.18 in 10.0 mi South 3.5 mph - N/A   Clear
4:50 AM 56.3 °F 49.1 °F 77% 30.18 in 10.0 mi South 3.5 mph - N/A   Clear
5:10 AM 56.1 °F 48.9 °F 77% 30.18 in 10.0 mi Calm Calm - N/A   Clear
6:10 AM 57.9 °F 48.2 °F 70% 30.18 in 10.0 mi South 3.5 mph - N/A   Clear
6:30 AM 59.4 °F 48.0 °F 66% 30.18 in 10.0 mi South 3.5 mph - N/A   Clear
6:50 AM 61.3 °F 47.7 °F 61% 30.18 in 10.0 mi South 5.8 mph - N/A   Clear
7:10 AM 63.5 °F 47.5 °F 56% 30.18 in 10.0 mi South 4.6 mph - N/A   Clear
7:30 AM 65.7 °F 46.4 °F 50% 30.18 in 10.0 mi South 6.9 mph - N/A   Clear
7:50 AM 68.0 °F 46.8 °F 47% 30.18 in 10.0 mi SSW 5.8 mph - N/A   Clear
8:10 AM 69.1 °F 48.0 °F 47% 30.17 in 10.0 mi South 9.2 mph - N/A   Clear
8:50 AM 71.1 °F 48.6 °F 45% 30.17 in 10.0 mi SSW 9.2 mph - N/A   Clear
9:10 AM 72.9 °F 49.1 °F 43% 30.17 in 10.0 mi SSW 6.9 mph - N/A   Clear
9:30 AM 74.1 °F 47.8 °F 39% 30.16 in 10.0 mi SSW 11.5 mph 16.1 mph N/A   Clear
9:50 AM 74.8 °F 47.1 °F 37% 30.16 in 10.0 mi SW 8.1 mph 16.1 mph N/A   Clear
10:10 AM 76.5 °F 45.3 °F 33% 30.16 in 10.0 mi South 8.1 mph - N/A   Clear
10:30 AM 77.9 °F 44.4 °F 30% 30.15 in 10.0 mi SSW 5.8 mph 16.1 mph N/A   Clear
11:10 AM 79.9 °F 44.8 °F 29% 30.14 in 10.0 mi South 9.2 mph - N/A   Clear
11:30 AM 80.8 °F 46.2 °F 30% 30.14 in 10.0 mi SW 11.5 mph 19.6 mph N/A   Scattered Clouds
11:50 AM 80.1 °F 48.2 °F 33% 30.14 in 10.0 mi SSW 9.2 mph 18.4 mph N/A   Scattered Clouds
12:30 PM 82.0 °F 47.5 °F 30% 30.13 in 10.0 mi SSW 6.9 mph 16.1 mph N/A   Clear
12:50 PM 81.3 °F 47.8 °F 31% 30.13 in 10.0 mi SW 10.4 mph - N/A   Clear
1:10 PM 82.6 °F 48.7 °F 31% 30.12 in 10.0 mi SSW 6.9 mph - N/A   Clear
1:30 PM 82.9 °F 48.0 °F 29% 30.11 in 10.0 mi SW 6.9 mph - N/A   Scattered Clouds
1:50 PM 83.1 °F 47.3 °F 29% 30.10 in 10.0 mi South 8.1 mph - N/A   Scattered Clouds
2:10 PM 84.0 °F 48.0 °F 28% 30.10 in 10.0 mi WSW 11.5 mph 16.1 mph N/A   Clear
2:30 PM 83.8 °F 47.1 °F 28% 30.09 in 10.0 mi South 9.2 mph - N/A   Scattered Clouds
2:50 PM 83.8 °F 46.6 °F 27% 30.08 in 10.0 mi SSE 11.5 mph 18.4 mph N/A   Scattered Clouds
3:10 PM 84.4 °F 45.9 °F 26% 30.07 in 10.0 mi SW 6.9 mph 26.5 mph N/A   Clear
3:30 PM 83.8 °F 45.7 °F 26% 30.06 in 10.0 mi SW 9.2 mph - N/A   Clear
3:50 PM 84.0 °F 47.1 °F 28% 30.06 in 10.0 mi South 10.4 mph - N/A   Clear
4:10 PM 83.8 °F 45.1 °F 26% 30.05 in 10.0 mi South 5.8 mph - N/A   Clear
4:30 PM 84.2 °F 44.8 °F 25% 30.05 in 10.0 mi SSW 8.1 mph - N/A   Clear
4:50 PM 82.8 °F 43.5 °F 25% 30.04 in 10.0 mi SSW 5.8 mph 16.1 mph N/A   Clear
5:10 PM 82.4 °F 42.8 °F 25% 30.04 in 10.0 mi SW 12.7 mph 18.4 mph N/A   Clear
5:30 PM 81.0 °F 44.2 °F 27% 30.04 in 10.0 mi SW 5.8 mph - N/A   Scattered Clouds
5:50 PM 80.8 °F 45.3 °F 29% 30.03 in 10.0 mi SSW 5.8 mph - N/A   Scattered Clouds
6:10 PM 81.7 °F 43.7 °F 26% 30.03 in 10.0 mi SSW 6.9 mph - N/A   Clear
6:30 PM 80.2 °F 43.9 °F 28% 30.03 in 10.0 mi SSW 5.8 mph - N/A   Clear
6:50 PM 80.6 °F 43.0 °F 26% 30.03 in 10.0 mi SSW 5.8 mph - N/A   Clear
7:10 PM 79.2 °F 44.6 °F 29% 30.03 in 10.0 mi South 5.8 mph - N/A   Clear
7:30 PM 77.9 °F 45.5 °F 32% 30.03 in 10.0 mi South 3.5 mph - N/A   Clear
7:50 PM 76.5 °F 46.9 °F 35% 30.02 in 10.0 mi Calm Calm - N/A   Clear
8:10 PM 75.6 °F 48.6 °F 38% 30.03 in 10.0 mi Calm Calm - N/A   Clear
8:30 PM 74.5 °F 49.5 °F 41% 30.03 in 10.0 mi Calm Calm - N/A   Clear
8:50 PM 73.8 °F 50.0 °F 43% 30.03 in 10.0 mi Calm Calm - N/A   Clear
9:30 PM 72.5 °F 49.8 °F 45% 30.03 in 10.0 mi Calm Calm - N/A   Clear
9:50 PM 71.4 °F 49.6 °F 46% 30.02 in 10.0 mi Calm Calm - N/A   Clear
10:10 PM 70.5 °F 49.5 °F 47% 30.02 in 10.0 mi Calm Calm - N/A   Clear
10:30 PM 70.2 °F 49.3 °F 47% 30.02 in 10.0 mi Calm Calm - N/A   Clear
10:50 PM 70.0 °F 49.1 °F 47% 30.02 in 10.0 mi SSE 5.8 mph - N/A   Clear
11:10 PM 69.8 °F 49.3 °F 48% 30.02 in 10.0 mi SSE 6.9 mph - N/A   Clear
11:30 PM 68.9 °F 50.0 °F 51% 30.02 in 10.0 mi South 5.8 mph - N/A   Clear
11:50 PM 68.9 °F 50.7 °F 52% 30.02 in 10.0 mi South 6.9 mph - N/A   Mostly Cloudy